Doon, Iowa
Current Conditions -  °F | °C
As of 9:35 AM on Monday 22 Dec 2014 (Local Time) from KSHL Reporting Station
Unknown Precip Unknown Precip  
Wind Chill: 30°   Ceiling: 400
Heat Index: 39°   Visibility: 2.5mi
Dew Point: 39°   Wind: 20mph
Humidity: 100%   Direction: 150°SSE
Pressure: 29.48"   Gusts: NA
Location:  43.28°N, 96.23°W
Report Text: KSHL 221535Z AUTO 15017KT 2 1/2SM -UP OVC004 04/04 A2948 RMK AO2
Loading
Personal Weather Stations






























Interactive Weather Map New forecast layout! Learn more

10-Day Weather Forecast

Advertisements
Track Severe Weather on mobile